Time;durP1;ratioP1;P1;durP2;ratioP2;P2;SDS_P1;SDS_P2;PMS_P1;PMS_P2;Temp;Humidity;BMP_temperature;BMP_pressure;BME280_temperature;BME280_humidity;BME280_pressure;Samples;Min_cycle;Max_cycle;Signal;HPM_P1;HPM_P2
2023/10/23 00:03:29;;;;;;;9.75;6.47;;;;;;;9.75;100.00;101202.41;6036400;23;20027;-93
2023/10/23 00:16:04;;;;;;;8.77;6.20;;;;;;;9.57;100.00;101220.91;6063700;23;20014;-93
2023/10/23 00:19:31;;;;;;;;;;;;;;;;;;;;;
2023/10/23 00:22:00;;;;;;;10.25;6.40;;;;;;;9.51;100.00;101218.09;6171614;23;20132;-93
2023/10/23 00:24:58;;;;;;;8.52;5.72;;;;;;;9.45;100.00;101214.41;6159429;23;20033;-93
2023/10/23 00:27:54;;;;;;;10.30;6.20;;;;;;;9.39;100.00;101212.50;6156647;23;20005;-93
2023/10/23 00:33:40;;;;;;;9.70;5.82;;;;;;;9.25;100.00;101217.19;6174137;23;20084;-93
2023/10/23 00:36:46;;;;;;;10.32;5.68;;;;;;;9.20;100.00;101211.84;6156092;23;20889;-93
2023/10/23 00:39:35;;;;;;;9.75;5.88;;;;;;;9.09;100.00;101214.91;6163624;23;20448;-93
2023/10/23 00:42:01;;;;;;;;;;;;;;;9.10;100.00;101222.75;6181519;23;20009;-93
2023/10/23 00:48:44;;;;;;;7.20;5.13;;;;;;;8.99;100.00;101216.28;6064145;23;20014;-94
2023/10/23 00:51:57;;;;;;;;;;;;;;;;;;;;;
2023/10/23 00:55:03;;;;;;;10.10;5.13;;;;;;;8.93;100.00;101213.47;6069900;23;20697;-93
2023/10/23 01:03:43;;;;;;;9.75;5.05;;;;;;;8.92;100.00;101222.09;6119538;23;20018;-93
2023/10/23 01:10:01;;;;;;;10.73;5.80;;;;;;;8.99;100.00;101224.06;6121029;23;20013;-93
2023/10/23 01:15:49;;;;;;;13.65;6.40;;;;;;;9.05;100.00;101234.69;6119113;23;20016;-93
2023/10/23 01:18:36;;;;;;;9.75;5.82;;;;;;;9.06;100.00;101228.66;6219474;23;20012;-93
2023/10/23 01:21:21;;;;;;;11.38;5.90;;;;;;;9.08;100.00;101233.91;6219403;23;20057;-93
2023/10/23 01:24:21;;;;;;;12.18;6.30;;;;;;;9.06;100.00;101231.25;6248494;22;20016;-92
2023/10/23 01:27:01;;;;;;;10.48;5.93;;;;;;;9.09;100.00;101238.28;6275703;22;20003;-92
2023/10/23 01:30:06;;;;;;;12.25;6.40;;;;;;;9.08;100.00;101239.13;6275641;22;20010;-93
2023/10/23 01:32:54;;;;;;;10.45;5.50;;;;;;;9.04;100.00;101232.94;6268167;22;20090;-93
2023/10/23 01:36:03;;;;;;;10.02;6.10;;;;;;;9.05;100.00;101235.59;6275180;22;20007;-94
2023/10/23 01:42:08;;;;;;;11.27;6.18;;;;;;;9.03;100.00;101228.56;6272247;22;20004;-94
2023/10/23 01:45:16;;;;;;;10.93;5.82;;;;;;;9.01;100.00;101225.03;6273665;22;20038;-93
2023/10/23 01:48:06;;;;;;;;;;;;;;;;;;;;;
2023/10/23 01:51:05;;;;;;;7.95;5.30;;;;;;;8.96;100.00;101236.97;6183067;23;20087;-94
2023/10/23 01:53:59;;;;;;;13.63;6.05;;;;;;;8.91;100.00;101222.91;6157465;23;20092;-93
2023/10/23 01:59:43;;;;;;;11.05;6.30;;;;;;;8.92;100.00;101227.28;6182662;23;20523;-94
2023/10/23 02:02:43;;;;;;;11.80;6.30;;;;;;;8.93;100.00;101229.06;6157693;23;20040;-93
2023/10/23 02:05:47;;;;;;;11.25;6.18;;;;;;;8.90;100.00;101228.94;6157751;23;20005;-93
2023/10/23 02:08:55;;;;;;;11.48;5.90;;;;;;;8.87;100.00;101232.31;6183089;23;20031;-93
2023/10/23 02:12:12;;;;;;;8.77;5.13;;;;;;;8.83;100.00;101233.03;6167907;22;20699;-93
2023/10/23 02:15:16;;;;;;;13.98;6.10;;;;;;;8.79;100.00;101236.34;6274027;22;20004;-93
2023/10/23 02:20:55;;;;;;;11.13;6.22;;;;;;;8.72;100.00;101248.22;6265579;22;20004;-93
2023/10/23 02:23:59;;;;;;;;;;;;;;;;;;;;;
2023/10/23 02:26:54;;;;;;;12.38;5.93;;;;;;;8.70;100.00;101244.66;6275811;22;20090;-93
2023/10/23 02:29:41;;;;;;;10.68;6.20;;;;;;;8.70;100.00;101258.56;6245157;22;20017;-93
2023/10/23 02:32:15;;;;;;;11.15;6.22;;;;;;;8.69;100.00;101261.97;6249214;22;20065;-93
2023/10/23 02:35:25;;;;;;;10.38;5.50;;;;;;;8.69;100.00;101261.09;6249717;22;20003;-93
2023/10/23 02:37:50;;;;;;;;;;;;;;;8.71;100.00;101254.25;6249134;22;20026;-93
2023/10/23 02:40:55;;;;;;;9.98;5.25;;;;;;;8.65;100.00;101260.09;6248771;22;20314;-93
2023/10/23 02:43:58;;;;;;;9.65;5.45;;;;;;;8.64;100.00;101263.50;6276860;22;20003;-93
2023/10/23 02:46:38;;;;;;;9.60;5.45;;;;;;;8.62;100.00;101269.50;6248617;22;20004;-93
2023/10/23 02:49:53;;;;;;;11.20;5.82;;;;;;;8.60;100.00;101259.00;6275675;22;20004;-93
2023/10/23 02:52:44;;;;;;;11.80;6.50;;;;;;;8.55;100.00;101260.56;6248525;22;20090;-93
2023/10/23 02:55:29;;;;;;;8.93;5.05;;;;;;;8.53;100.00;101262.22;6244748;22;20011;-93
2023/10/23 02:58:36;;;;;;;;;;;;;;;;;;;;;
2023/10/23 03:01:51;;;;;;;;;;;;;;;;;;;;;
2023/10/23 03:04:32;;;;;;;8.82;5.10;;;;;;;8.43;100.00;101266.16;6273611;22;20087;-93
2023/10/23 03:07:15;;;;;;;9.18;5.30;;;;;;;8.42;100.00;101266.09;6249099;22;20007;-93
2023/10/23 03:10:02;;;;;;;9.05;5.18;;;;;;;8.41;100.00;101260.00;6223727;22;20008;-93
2023/10/23 03:13:15;;;;;;;;;;;;;;;;;;;;;
2023/10/23 03:16:33;;;;;;;7.95;4.90;;;;;;;8.37;100.00;101273.66;6275379;22;20082;-93
2023/10/23 03:19:24;;;;;;;9.85;5.03;;;;;;;8.34;100.00;101268.34;6269357;22;20011;-93
2023/10/23 03:21:56;;;;;;;9.50;5.45;;;;;;;8.32;100.00;101262.22;6248927;22;20008;-93
2023/10/23 03:24:46;;;;;;;;;;;;;;;;;;;;;
2023/10/23 03:27:30;;;;;;;11.60;5.22;;;;;;;8.24;100.00;101274.00;6245470;23;20098;-93
2023/10/23 03:33:05;;;;;;;7.63;4.50;;;;;;;8.17;100.00;101258.19;6245026;23;20062;-93
2023/10/23 03:35:56;;;;;;;7.45;4.47;;;;;;;8.12;100.00;101267.50;6215812;23;20031;-93
2023/10/23 03:38:30;;;;;;;7.97;4.43;;;;;;;8.08;100.00;101265.63;6199828;23;20008;-93
2023/10/23 03:41:10;;;;;;;11.13;4.63;;;;;;;8.07;100.00;101266.44;6244206;23;20011;-93
2023/10/23 03:43:47;;;;;;;9.45;4.93;;;;;;;8.05;100.00;101268.06;6242260;23;20083;-93
2023/10/23 03:46:23;;;;;;;10.77;5.50;;;;;;;7.99;100.00;101275.63;6214314;23;20823;-93
2023/10/23 03:48:56;;;;;;;8.63;4.50;;;;;;;7.95;100.00;101274.63;6217828;23;20061;-93
2023/10/23 03:51:32;;;;;;;7.57;3.90;;;;;;;7.92;100.00;101276.19;6216344;23;20034;-93
2023/10/23 03:54:00;;;;;;;7.88;4.20;;;;;;;7.84;100.00;101268.97;6218044;23;20008;-93
2023/10/23 03:57:00;;;;;;;7.47;4.07;;;;;;;7.84;100.00;101268.97;6218024;23;20004;-93
2023/10/23 03:59:35;;;;;;;8.23;4.80;;;;;;;7.84;100.00;101270.69;6218268;23;20008;-94
2023/10/23 04:02:40;;;;;;;8.75;4.40;;;;;;;7.82;100.00;101273.22;6217350;23;20008;-92
2023/10/23 04:05:18;;;;;;;9.30;4.88;;;;;;;7.81;100.00;101273.16;6209074;23;20000;-94
2023/10/23 04:07:54;;;;;;;11.43;4.30;;;;;;;7.78;100.00;101283.41;6217957;23;20000;-93
2023/10/23 04:10:30;;;;;;;8.05;4.20;;;;;;;7.78;100.00;101278.22;6217846;23;20004;-91
2023/10/23 04:13:02;;;;;;;8.40;4.30;;;;;;;7.72;100.00;101276.25;6216781;23;20030;-93
2023/10/23 04:16:00;;;;;;;7.95;4.35;;;;;;;7.69;100.00;101276.13;6217774;23;20012;-93
2023/10/23 04:18:28;;;;;;;7.90;4.32;;;;;;;7.67;100.00;101280.34;6218477;23;20000;-94
2023/10/23 04:21:18;;;;;;;7.85;4.40;;;;;;;7.65;100.00;101274.22;6217439;23;20075;-93
2023/10/23 04:23:54;;;;;;;8.02;4.30;;;;;;;7.61;100.00;101273.19;6238742;22;20347;-93
2023/10/23 04:26:59;;;;;;;6.97;4.38;;;;;;;7.56;100.00;101271.22;6274045;22;20453;-93
2023/10/23 04:29:50;;;;;;;6.28;3.80;;;;;;;7.51;100.00;101275.34;6275981;22;20434;-92
2023/10/23 04:32:27;;;;;;;60.30;5.80;;;;;;;7.41;100.00;101285.28;6211985;22;20081;-93
2023/10/23 04:35:12;;;;;;;31.48;4.88;;;;;;;7.34;100.00;101287.56;6275579;22;20003;-91
2023/10/23 04:38:02;;;;;;;7.25;3.40;;;;;;;7.32;100.00;101290.09;6276035;22;20009;-93
2023/10/23 04:43:59;;;;;;;7.22;3.60;;;;;;;7.33;100.00;101286.69;6277054;22;20057;-91
2023/10/23 04:46:42;;;;;;;6.13;3.22;;;;;;;7.35;100.00;101284.16;6275329;22;20004;-93
2023/10/23 04:49:46;;;;;;;6.88;3.40;;;;;;;7.36;100.00;101286.81;6276142;22;20027;-93
2023/10/23 04:52:23;;;;;;;6.35;3.40;;;;;;;7.37;100.00;101277.31;6276380;22;20498;-93
2023/10/23 04:55:31;;;;;;;5.60;3.38;;;;;;;7.40;100.00;101273.19;6274529;22;20004;-93
2023/10/23 04:58:17;;;;;;;5.60;3.40;;;;;;;7.38;100.00;101279.97;6263923;22;20003;-93
2023/10/23 05:00:48;;;;;;;6.95;4.00;;;;;;;7.35;100.00;101273.78;6275888;22;20085;-93
2023/10/23 05:03:16;;;;;;;6.53;4.10;;;;;;;7.33;100.00;101276.31;6277832;22;20545;-93
2023/10/23 05:05:57;;;;;;;6.70;3.63;;;;;;;7.31;100.00;101267.56;6275869;22;20027;-93
2023/10/23 05:08:30;;;;;;;6.40;3.80;;;;;;;7.28;100.00;101262.25;6275994;22;20007;-93
2023/10/23 05:11:26;;;;;;;6.05;3.90;;;;;;;7.23;100.00;101275.03;6276000;22;20011;-93
2023/10/23 05:14:24;;;;;;;7.63;4.20;;;;;;;7.22;100.00;101277.56;6276438;22;19999;-93
2023/10/23 05:17:01;;;;;;;6.55;3.85;;;;;;;7.11;100.00;101280.56;6275582;22;19996;-93
2023/10/23 05:19:40;;;;;;;6.65;3.97;;;;;;;7.05;100.00;101274.19;6275896;22;20004;-93
2023/10/23 05:22:15;;;;;;;5.55;3.65;;;;;;;6.98;100.00;101275.66;6276205;22;20004;-93
2023/10/23 05:25:04;;;;;;;6.57;3.50;;;;;;;6.97;100.00;101279.91;6275677;22;20050;-93
2023/10/23 05:27:36;;;;;;;6.47;3.63;;;;;;;6.97;100.00;101273.88;6275948;22;20011;-92
2023/10/23 05:31:00;;;;;;;6.38;3.90;;;;;;;6.96;100.00;101275.53;6274876;22;20015;-94
2023/10/23 05:33:35;;;;;;;8.50;4.47;;;;;;;6.98;100.00;101267.88;6276133;22;20016;-93
2023/10/23 05:36:24;;;;;;;5.82;3.78;;;;;;;6.98;100.00;101262.69;6274808;22;20419;-93
2023/10/23 05:39:02;;;;;;;8.00;3.90;;;;;;;6.96;100.00;101270.38;6274902;22;20007;-94
2023/10/23 05:41:38;;;;;;;6.03;3.75;;;;;;;6.94;100.00;101268.56;6301990;22;20003;-93
2023/10/23 05:44:34;;;;;;;;;;;;;;;;;;;;;
2023/10/23 05:47:16;;;;;;;5.78;3.50;;;;;;;6.88;100.00;101268.25;6276479;22;20486;-93
2023/10/23 05:50:08;;;;;;;6.75;3.55;;;;;;;6.87;100.00;101269.97;6275244;22;20334;-93
2023/10/23 05:53:13;;;;;;;6.50;3.45;;;;;;;6.88;100.00;101279.53;6274751;22;20087;-94
2023/10/23 05:56:08;;;;;;;5.38;3.20;;;;;;;6.84;100.00;101279.31;6273403;22;20034;-93
2023/10/23 05:58:55;;;;;;;9.88;3.25;;;;;;;6.72;100.00;101282.19;6275660;22;20354;-93
2023/10/23 06:02:06;;;;;;;5.45;3.10;;;;;;;6.66;100.00;101280.22;6275605;22;20086;-93
2023/10/23 06:05:19;;;;;;;5.00;2.90;;;;;;;6.64;100.00;101280.97;6274859;22;20015;-93
2023/10/23 06:08:01;;;;;;;8.00;3.25;;;;;;;6.59;100.00;101271.28;6274741;22;20007;-94
2023/10/23 06:11:27;;;;;;;6.35;3.15;;;;;;;6.63;100.00;101274.91;6275386;22;20011;-93
2023/10/23 06:14:23;;;;;;;5.50;3.08;;;;;;;6.65;100.00;101280.13;6275708;22;20008;-93
2023/10/23 06:16:56;;;;;;;5.63;3.22;;;;;;;6.66;100.00;101280.22;6275931;22;20354;-93
2023/10/23 06:19:59;;;;;;;5.40;3.20;;;;;;;6.67;100.00;101284.59;6275565;22;20082;-94
2023/10/23 06:25:55;;;;;;;;;;;;;;;;;;;;;
2023/10/23 06:29:02;;;;;;;7.07;3.45;;;;;;;6.63;100.00;101284.38;6277017;22;20095;-93
2023/10/23 06:32:13;;;;;;;;;;;;;;;;;;;;;
2023/10/23 06:34:48;;;;;;;5.78;3.03;;;;;;;6.56;100.00;101283.19;6271521;22;20019;-94
2023/10/23 06:40:46;;;;;;;6.90;4.28;;;;;;;6.58;100.00;101287.63;6275976;22;20449;-93
2023/10/23 06:43:49;;;;;;;6.38;3.97;;;;;;;6.59;100.00;101281.66;6264934;22;20138;-94
2023/10/23 06:46:32;;;;;;;9.95;4.57;;;;;;;6.57;100.00;101284.97;6259468;22;20000;-93
2023/10/23 06:49:32;;;;;;;7.97;4.15;;;;;;;6.52;100.00;101284.75;6275643;22;20003;-93
2023/10/23 06:52:00;;;;;;;7.80;3.55;;;;;;;6.50;100.00;101280.31;6274893;22;20011;-94
2023/10/23 06:54:57;;;;;;;8.85;3.95;;;;;;;6.51;100.00;101284.69;6273705;22;20007;-94
2023/10/23 07:00:36;;;;;;;6.93;3.90;;;;;;;6.44;100.00;101281.81;6260175;22;20011;-93
2023/10/23 07:03:28;;;;;;;6.38;3.42;;;;;;;6.46;100.00;101275.81;6271381;22;20003;-94
2023/10/23 07:06:28;;;;;;;7.93;4.05;;;;;;;6.49;100.00;101271.69;6274300;22;20004;-93
2023/10/23 07:10:06;;;;;;;6.70;3.97;;;;;;;6.50;100.00;101272.56;6265507;22;20003;-93
2023/10/23 07:15:42;;;;;;;6.95;3.92;;;;;;;6.56;100.00;101283.19;6213666;23;20023;-94
2023/10/23 07:21:32;;;;;;;6.63;4.35;;;;;;;6.61;100.00;101271.34;6269604;22;20086;-94
2023/10/23 07:24:25;;;;;;;8.68;4.70;;;;;;;6.66;100.00;101272.44;6273611;22;20026;-93
2023/10/23 07:27:32;;;;;;;8.00;4.70;;;;;;;6.71;100.00;101268.38;6273613;22;20133;-95
2023/10/23 07:30:40;;;;;;;7.55;4.72;;;;;;;6.75;100.00;101269.44;6248280;22;20032;-94
2023/10/23 07:33:56;;;;;;;8.57;5.28;;;;;;;6.77;100.00;101267.78;6247400;22;20003;-93
2023/10/23 07:37:03;;;;;;;8.88;5.30;;;;;;;6.81;100.00;101264.50;6247206;22;20004;-94
2023/10/23 07:40:24;;;;;;;;;;;;;;;;;;;;;
2023/10/23 07:43:54;;;;;;;11.15;5.78;;;;;;;6.93;100.00;101290.09;6273572;22;20083;-93
2023/10/23 07:46:31;;;;;;;;;;;;;;;7.00;100.00;101289.53;6246370;22;20003;-94
2023/10/23 07:53:25;;;;;;;11.13;5.65;;;;;;;7.10;100.00;101288.25;6153258;23;20009;-94
2023/10/23 08:00:14;;;;;;;;;;;;;;;;;;;;;
2023/10/23 08:03:15;;;;;;;8.88;5.32;;;;;;;7.25;100.00;101288.06;6275258;22;20080;-93
2023/10/23 08:06:13;;;;;;;;;;;;;;;;;;;;;
2023/10/23 08:09:22;;;;;;;11.75;5.75;;;;;;;7.36;100.00;101279.03;6276056;22;20098;-94
2023/10/23 08:12:20;;;;;;;;;;;;;;;7.47;100.00;101276.91;6242632;23;20004;-94
2023/10/23 08:15:43;;;;;;;11.30;6.10;;;;;;;7.58;100.00;101274.78;6121212;23;19916;-93
2023/10/23 08:19:01;;;;;;;13.88;6.80;;;;;;;7.67;100.00;101267.38;6107121;23;20009;-93
2023/10/23 08:29:00;;;;;;;14.50;6.82;;;;;;;8.01;100.00;101274.00;6064854;23;20378;-94
2023/10/23 08:35:39;;;;;;;15.02;7.45;;;;;;;8.28;100.00;101281.09;6065282;23;20048;-94
2023/10/23 08:42:12;;;;;;;;;;;;;;;;;;;;;
2023/10/23 08:45:15;;;;;;;15.07;8.30;;;;;;;8.59;100.00;101284.94;6167249;23;20109;-93
2023/10/23 08:48:13;;;;;;;15.57;8.07;;;;;;;8.68;100.00;101282.72;6186245;23;20432;-93
2023/10/23 08:51:05;;;;;;;17.02;8.88;;;;;;;8.76;100.00;101277.78;6184551;23;20008;-93
2023/10/23 08:54:04;;;;;;;15.43;8.23;;;;;;;8.83;100.00;101285.00;6213562;22;20027;-92
2023/10/23 08:57:02;;;;;;;14.38;8.43;;;;;;;8.92;100.00;101272.38;6273075;22;20011;-93
2023/10/23 08:59:58;;;;;;;;;;;;;;;;;;;;;
2023/10/23 09:02:59;;;;;;;12.48;6.38;;;;;;;9.01;100.00;101279.63;6274649;22;20091;-93
2023/10/23 09:05:50;;;;;;;10.00;5.88;;;;;;;9.07;100.00;101265.94;6273371;22;20038;-92
2023/10/23 09:08:57;;;;;;;15.05;7.95;;;;;;;9.14;100.00;101262.72;6263531;22;20034;-93
2023/10/23 09:12:09;;;;;;;;;;;;;;;;;;;;;
2023/10/23 09:14:59;;;;;;;14.60;8.73;;;;;;;9.33;100.00;101261.69;6275462;22;20059;-92
2023/10/23 09:18:01;;;;;;;12.10;6.38;;;;;;;9.39;100.00;101262.78;6275418;22;20027;-92
2023/10/23 09:20:45;;;;;;;12.40;7.50;;;;;;;9.52;100.00;101255.41;6273737;22;20012;-93
2023/10/23 09:23:43;;;;;;;12.77;6.22;;;;;;;9.57;100.00;101254.75;6273926;22;20095;-93
2023/10/23 09:26:28;;;;;;;14.80;7.82;;;;;;;9.68;100.00;101247.28;6275359;22;20062;-93
2023/10/23 09:29:07;;;;;;;11.13;6.32;;;;;;;9.73;100.00;101245.75;6274239;22;20091;-92
2023/10/23 09:32:00;;;;;;;12.50;7.47;;;;;;;9.83;100.00;101248.63;6299527;22;20004;-93
2023/10/23 09:35:04;;;;;;;14.80;7.55;;;;;;;9.92;100.00;101242.03;6275087;22;20215;-93
2023/10/23 09:38:28;;;;;;;15.27;7.88;;;;;;;10.05;100.00;101235.50;6270588;22;20012;-92
2023/10/23 09:41:14;;;;;;;12.85;6.50;;;;;;;10.09;100.00;101231.25;6274901;22;20065;-94
2023/10/23 09:44:20;;;;;;;10.98;5.82;;;;;;;10.16;100.00;101232.34;6275793;22;20062;-92
2023/10/23 09:47:45;;;;;;;12.68;7.75;;;;;;;10.25;100.00;101223.09;6275789;22;20029;-92
2023/10/23 09:50:21;;;;;;;14.88;7.90;;;;;;;10.35;100.00;101224.28;6274181;22;20007;-93
2023/10/23 09:53:29;;;;;;;14.38;7.60;;;;;;;10.43;100.00;101229.75;6242702;23;20008;-92
2023/10/23 09:59:56;;;;;;;14.35;8.82;;;;;;;10.54;100.00;101230.06;6227207;23;20724;-93
2023/10/23 10:02:55;;;;;;;17.67;10.10;;;;;;;10.63;100.00;101226.84;6216387;23;20035;-93
2023/10/23 10:05:56;;;;;;;16.20;10.17;;;;;;;10.73;100.00;101232.38;6214465;23;20572;-92
2023/10/23 10:08:41;;;;;;;16.95;11.02;;;;;;;10.82;100.00;101221.34;6217522;23;20231;-93
2023/10/23 10:14:16;;;;;;;;;;;;;;;11.02;100.00;101221.00;6243611;23;20019;-93
2023/10/23 10:17:23;;;;;;;;;;;;;;;;;;;;;
2023/10/23 10:20:14;;;;;;;15.27;9.13;;;;;;;11.09;100.00;101210.78;6243116;23;20079;-93
2023/10/23 10:23:39;;;;;;;12.82;7.85;;;;;;;11.17;100.00;101215.34;6244045;22;20004;-93
2023/10/23 10:26:29;;;;;;;;;;;;;;;;;;;;;
2023/10/23 10:29:01;;;;;;;17.63;8.73;;;;;;;11.28;100.00;101214.78;6276029;22;20110;-94
2023/10/23 10:32:24;;;;;;;17.55;8.98;;;;;;;11.33;100.00;101207.06;6274259;22;20043;-93
2023/10/23 10:50:10;;;;;;;13.35;6.53;;;;;;;11.65;100.00;101192.22;6276010;22;20007;-92
2023/10/23 10:53:24;;;;;;;20.70;6.65;;;;;;;11.76;100.00;101184.66;6157422;23;20071;-93
2023/10/23 10:56:28;;;;;;;12.32;6.55;;;;;;;11.84;100.00;101167.44;6210587;22;20003;-93
2023/10/23 10:59:52;;;;;;;16.80;7.07;;;;;;;11.97;100.00;101155.59;6242490;23;20004;-93
2023/10/23 11:02:52;;;;;;;16.23;6.40;;;;;;;12.07;100.00;101161.03;6216727;23;20179;-93
2023/10/23 11:12:55;;;;;;;14.45;6.30;;;;;;;12.20;100.00;101129.09;6236336;23;20008;-93
2023/10/23 11:16:21;;;;;;;16.63;6.38;;;;;;;12.24;100.00;101125.72;6206385;23;20343;-93
2023/10/23 11:19:26;;;;;;;13.07;6.82;;;;;;;12.28;100.00;101126.66;6207134;23;20008;-93
2023/10/23 11:25:32;;;;;;;14.02;5.90;;;;;;;12.38;100.00;101114.66;6192503;23;20016;-93
2023/10/23 11:36:01;;;;;;;12.05;6.45;;;;;;;12.49;100.00;101094.84;6181046;23;20039;-93
2023/10/23 11:39:02;;;;;;;14.90;6.70;;;;;;;12.51;100.00;101090.53;6247494;22;20014;-93
2023/10/23 11:48:01;;;;;;;13.70;6.72;;;;;;;12.62;100.00;101069.84;6135317;22;20365;-93
2023/10/23 11:55:00;;;;;;;15.40;7.25;;;;;;;12.75;100.00;101066.59;6114135;23;20373;-92
2023/10/23 12:02:01;;;;;;;;;;;;;;;;;;;;;
2023/10/23 12:05:25;;;;;;;14.35;8.27;;;;;;;12.88;100.00;101059.84;5950326;24;20088;-92
2023/10/23 12:08:25;;;;;;;13.43;7.95;;;;;;;12.88;100.00;101049.38;5954700;24;20004;-93
2023/10/23 12:18:28;;;;;;;16.40;7.93;;;;;;;12.90;100.00;101037.19;5923368;24;20024;-93
2023/10/23 12:21:11;;;;;;;;;;;;;;;;;;;;;
2023/10/23 12:24:02;;;;;;;16.27;7.70;;;;;;;12.97;100.00;101026.00;5960171;23;20413;-92
2023/10/23 12:26:34;;;;;;;13.02;8.18;;;;;;;12.98;100.00;101016.44;6141385;22;20026;-92
2023/10/23 12:29:21;;;;;;;17.85;8.50;;;;;;;12.98;100.00;101016.44;6246084;22;20015;-93
2023/10/23 12:31:50;;;;;;;14.85;7.90;;;;;;;12.99;100.00;101005.09;6271517;22;20498;-92
2023/10/23 12:34:18;;;;;;;14.90;7.95;;;;;;;12.99;100.00;101008.59;6247437;22;20008;-92
2023/10/23 12:36:52;;;;;;;16.03;8.53;;;;;;;12.98;100.00;101011.19;6272239;22;20335;-92
2023/10/23 12:39:26;;;;;;;15.65;7.85;;;;;;;12.97;100.00;100994.59;6272811;22;20086;-92
2023/10/23 12:41:52;;;;;;;12.50;6.78;;;;;;;12.97;100.00;100988.50;6247259;22;20000;-92
2023/10/23 12:44:44;;;;;;;14.57;7.20;;;;;;;12.95;100.00;100996.31;6272945;22;20014;-92
2023/10/23 12:47:16;;;;;;;17.60;7.47;;;;;;;12.94;100.00;100998.91;6247373;22;20499;-91
2023/10/23 12:49:55;;;;;;;14.27;7.18;;;;;;;12.96;100.00;100992.88;6273023;22;20003;-92
2023/10/23 12:52:22;;;;;;;12.48;7.60;;;;;;;13.01;100.00;101001.66;6248685;22;20007;-91
2023/10/23 12:55:01;;;;;;;14.80;7.43;;;;;;;12.98;100.00;100980.69;6249273;22;20034;-92
2023/10/23 12:57:32;;;;;;;14.77;7.18;;;;;;;13.02;100.00;100976.34;6275257;22;20320;-92
2023/10/23 13:00:13;;;;;;;14.68;7.22;;;;;;;13.01;100.00;100972.88;6274834;22;20087;-92
2023/10/23 13:02:57;;;;;;;13.18;7.65;;;;;;;13.03;100.00;100976.41;6248977;22;20031;-92
2023/10/23 13:05:52;;;;;;;12.93;7.32;;;;;;;13.02;100.00;100972.03;6249587;22;20430;-91
2023/10/23 13:08:25;;;;;;;13.30;7.82;;;;;;;13.04;100.00;100969.44;6275304;22;20065;-91
2023/10/23 13:10:53;;;;;;;15.50;7.78;;;;;;;13.03;100.00;100965.06;6248286;22;20174;-92
2023/10/23 13:13:28;;;;;;;15.32;7.68;;;;;;;13.03;100.00;100965.94;6273949;22;20000;-92
2023/10/23 13:15:56;;;;;;;14.38;8.18;;;;;;;13.01;100.00;100962.41;6274235;22;20055;-91
2023/10/23 13:18:21;;;;;;;15.85;7.78;;;;;;;13.02;100.00;100948.50;6248484;22;20006;-92
2023/10/23 13:20:47;;;;;;;10.10;5.97;;;;;;;13.04;100.00;100943.28;6273568;22;20004;-93
2023/10/23 13:23:26;;;;;;;11.73;6.78;;;;;;;13.03;100.00;100939.78;6274231;22;20003;-91
2023/10/23 13:25:54;;;;;;;11.95;6.95;;;;;;;13.00;100.00;100937.09;6274020;22;20018;-91
2023/10/23 13:28:22;;;;;;;12.57;6.85;;;;;;;12.97;100.00;100926.59;6248272;22;20012;-91
2023/10/23 13:30:56;;;;;;;10.90;6.70;;;;;;;12.98;100.00;100925.75;6247003;22;20074;-91
2023/10/23 13:33:27;;;;;;;12.98;7.00;;;;;;;12.97;100.00;100931.84;6248329;22;20352;-91
2023/10/23 13:35:53;;;;;;;13.20;7.40;;;;;;;12.98;100.00;100928.38;6247984;22;20334;-92
2023/10/23 13:38:18;;;;;;;11.98;6.72;;;;;;;12.99;100.00;100913.53;6248210;22;20087;-91
2023/10/23 13:40:43;;;;;;;13.00;7.60;;;;;;;13.00;100.00;100904.84;6275582;22;20025;-91
2023/10/23 13:43:09;;;;;;;12.20;7.15;;;;;;;13.01;100.00;100904.00;6248687;22;20026;-91
2023/10/23 13:45:34;;;;;;;15.00;7.55;;;;;;;13.00;100.00;100908.34;6275515;22;19996;-91
2023/10/23 13:48:01;;;;;;;12.52;7.68;;;;;;;12.99;100.00;100909.22;6275604;22;20007;-91
2023/10/23 13:50:27;;;;;;;11.80;7.70;;;;;;;13.02;100.00;100903.13;6247945;22;20066;-91
2023/10/23 13:52:52;;;;;;;12.63;6.82;;;;;;;13.03;100.00;100897.94;6248736;22;20007;-91
2023/10/23 13:55:18;;;;;;;14.90;7.85;;;;;;;13.05;100.00;100893.59;6275313;22;20015;-91
2023/10/23 13:57:43;;;;;;;13.20;7.43;;;;;;;13.05;100.00;100893.59;6275349;22;20033;-91
2023/10/23 14:00:09;;;;;;;11.10;7.32;;;;;;;13.08;100.00;100886.63;6274854;22;19999;-91
2023/10/23 14:02:35;;;;;;;12.93;7.30;;;;;;;13.12;100.00;100877.97;6247832;22;20012;-91
2023/10/23 14:05:01;;;;;;;13.07;8.13;;;;;;;13.10;100.00;100877.97;6275317;22;19991;-91
2023/10/23 14:07:29;;;;;;;12.75;7.20;;;;;;;13.09;100.00;100875.31;6248240;22;20049;-92
2023/10/23 14:09:55;;;;;;;12.27;6.70;;;;;;;13.09;100.00;100867.47;6247076;22;20011;-91
2023/10/23 14:12:20;;;;;;;12.80;7.63;;;;;;;13.03;100.00;100863.94;6245307;22;20003;-92
2023/10/23 14:14:46;;;;;;;10.30;6.47;;;;;;;13.07;100.00;100858.75;6247049;22;20015;-92
2023/10/23 14:17:17;;;;;;;9.65;5.45;;;;;;;13.00;100.00;100853.41;6247703;22;20038;-92
2023/10/23 14:20:01;;;;;;;;;;;;;;;;;;;;;
2023/10/23 14:22:29;;;;;;;11.98;6.60;;;;;;;12.90;100.00;100851.53;6275322;22;20106;-92
2023/10/23 14:24:57;;;;;;;10.82;6.70;;;;;;;12.81;100.00;100846.19;6265299;22;20012;-92
2023/10/23 14:27:26;;;;;;;11.15;6.28;;;;;;;12.70;100.00;100841.66;6244916;23;20008;-91
2023/10/23 14:30:05;;;;;;;10.13;6.07;;;;;;;12.64;100.00;100838.97;6193094;23;20040;-91
2023/10/23 14:32:38;;;;;;;9.48;5.70;;;;;;;12.61;100.00;100832.81;6217907;23;20078;-91
2023/10/23 14:35:07;;;;;;;10.25;6.20;;;;;;;12.57;100.00;100831.00;6193017;23;20012;-92
2023/10/23 14:37:35;;;;;;;9.65;5.43;;;;;;;12.55;100.00;100812.69;6217873;23;20061;-92
2023/10/23 14:40:12;;;;;;;8.75;5.38;;;;;;;12.53;100.00;100811.78;6217321;23;20008;-92
2023/10/23 14:42:42;;;;;;;10.45;5.30;;;;;;;12.52;100.00;100812.63;6244014;23;20499;-91
2023/10/23 14:45:13;;;;;;;11.20;5.55;;;;;;;12.50;100.00;100804.78;6217243;23;20008;-91
2023/10/23 14:47:41;;;;;;;11.23;5.75;;;;;;;12.47;100.00;100790.75;6216293;23;20028;-92
2023/10/23 14:50:10;;;;;;;10.82;5.65;;;;;;;12.45;100.00;100784.66;6214177;23;20083;-92
2023/10/23 14:52:38;;;;;;;47.10;28.87;;;;;;;12.44;100.00;100788.09;6213533;23;20004;-91
2023/10/23 14:55:10;;;;;;;80.40;60.33;;;;;;;12.43;100.00;100775.94;6214341;23;20032;-91
2023/10/23 14:57:40;;;;;;;16.60;10.48;;;;;;;12.43;100.00;100781.16;6215583;23;20007;-91
2023/10/23 15:00:09;;;;;;;27.35;24.60;;;;;;;12.39;100.00;100780.22;6213297;23;20007;-91
2023/10/23 15:02:35;;;;;;;13.68;9.52;;;;;;;12.38;100.00;100773.22;6213638;23;20015;-91
2023/10/23 15:05:03;;;;;;;13.93;7.93;;;;;;;12.37;100.00;100781.03;6240956;23;20000;-91
2023/10/23 15:07:29;;;;;;;13.60;7.53;;;;;;;12.34;100.00;100767.09;6213485;23;20004;-90
2023/10/23 15:09:54;;;;;;;12.02;7.03;;;;;;;12.37;100.00;100770.59;6213419;23;20015;-92
2023/10/23 15:12:20;;;;;;;31.15;27.88;;;;;;;12.35;100.00;100765.34;6213135;23;20010;-92
2023/10/23 15:14:45;;;;;;;10.07;6.82;;;;;;;12.33;100.00;100765.31;6213858;23;20006;-92
2023/10/23 15:17:14;;;;;;;10.43;6.70;;;;;;;12.35;100.00;100758.41;6212770;23;20000;-92
2023/10/23 15:19:45;;;;;;;12.67;6.50;;;;;;;12.32;100.00;100753.09;6211768;23;20015;-91
2023/10/23 15:22:10;;;;;;;13.60;7.32;;;;;;;12.31;100.00;100756.59;6213936;23;20243;-91
2023/10/23 15:24:49;;;;;;;15.10;8.85;;;;;;;12.31;100.00;100753.97;6217043;22;20016;-92
2023/10/23 15:27:17;;;;;;;12.20;8.10;;;;;;;12.31;100.00;100753.97;6243628;22;20053;-91
2023/10/23 15:29:45;;;;;;;12.77;8.25;;;;;;;12.31;100.00;100751.38;6243147;22;20089;-91
2023/10/23 15:32:23;;;;;;;10.93;6.93;;;;;;;12.29;100.00;100753.06;6244707;22;20008;-91
2023/10/23 15:34:51;;;;;;;19.55;14.18;;;;;;;12.28;100.00;100761.78;6243051;22;20030;-91
2023/10/23 15:37:19;;;;;;;11.13;7.37;;;;;;;12.28;100.00;100756.53;6269400;22;20018;-92
2023/10/23 15:39:45;;;;;;;11.13;7.18;;;;;;;12.29;100.00;100747.84;6243928;22;20242;-91
2023/10/23 15:42:11;;;;;;;14.25;8.68;;;;;;;12.28;100.00;100751.31;6244190;22;20007;-92
2023/10/23 15:44:36;;;;;;;14.07;7.68;;;;;;;12.27;100.00;100744.34;6244581;22;20066;-91
2023/10/23 15:47:04;;;;;;;16.77;12.25;;;;;;;12.26;100.00;100744.31;6244592;22;20008;-91